Latest Weather Observations for Young

IDN60801

Issued at 8:03 pm EST Wednesday 24 August 2016 (issued every 30 minutes, with the page automatically refreshed every 10 minutes)

About weather observations | Map of weather stations | Latest weather observations for NSW | Other Formats
Station Details ID: 073138 Name: YOUNG AIRPORT Lat: -34.25 Lon: 148.25 Height: 379.6 m
Data from the previous 72 hours. | See also: Recent months at Young
Date/Time
EST
Temp
°C
App
Temp
°C
Dew
Point
°C
Rel
Hum
%
Delta-T
°C
Wind Press
QNH
hPa
Press
MSL
hPa
Rain since
9am
mm
Dir  Spd
km/h
Gust
km/h
Spd
kts
Gust
kts
24/08:00pm 7.6 5.4 6.1 90 0.7 SE 7 15 4 8 1010.2 1010.7 8.0
24/07:30pm 7.6 4.7 6.5 93 0.5 SE 11 15 6 8 1009.8 1010.3 8.0
24/07:00pm 7.9 5.1 7.0 94 0.4 SSE 11 15 6 8 1009.7 1010.2 8.0
24/06:30pm 8.1 4.9 7.0 93 0.5 SE 13 22 7 12 1009.5 1010.0 8.0
24/06:00pm 8.8 6.5 7.6 92 0.6 SE 9 11 5 6 1009.0 1009.6 7.4
24/05:30pm 8.9 6.3 7.8 93 0.5 SE 11 19 6 10 1008.7 1009.2 7.4
24/05:00pm 9.0 6.5 8.2 95 0.4 SSE 11 17 6 9 1008.5 1009.0 7.4
24/04:30pm 9.3 7.4 9.2 99 0.1 S 9 15 5 8 1008.7 1009.2 7.2
24/04:00pm 9.3 6.9 8.7 96 0.3 S 11 15 6 8 1008.7 1009.2 6.8
24/03:30pm 9.6 8.1 9.1 97 0.3 SSE 7 11 4 6 1008.9 1009.5 5.8
24/03:00pm 9.8 8.0 9.3 97 0.3 S 9 13 5 7 1008.7 1009.2 5.8
24/02:30pm 9.5 6.8 9.0 97 0.3 SSW 13 17 7 9 1008.8 1009.3 5.2
24/02:00pm 9.7 6.7 9.1 96 0.3 SSW 15 19 8 10 1009.2 1009.7 3.4
24/01:30pm 10.4 8.0 8.7 89 0.9 SW 11 13 6 7 1009.6 1010.1 0.6
24/01:00pm 11.4 8.9 8.4 82 1.5 SSE 11 15 6 8 1009.4 1009.9 0.4
24/12:30pm 11.0 8.1 8.1 82 1.4 SSE 13 17 7 9 1010.0 1010.5 0.4
24/12:00pm 10.5 8.1 8.6 88 1.0 S 11 15 6 8 1010.6 1011.1 0.4
24/11:30am 10.2 8.6 8.0 86 1.1 W 6 9 3 5 1011.2 1011.8 0.0
24/11:00am 10.6 7.9 7.3 80 1.6 SE 11 19 6 10 1011.3 1011.9 0.0
24/10:30am 10.8 7.2 6.9 77 1.9 ESE 15 28 8 15 1011.6 1012.2 0.0
24/10:00am 10.9 8.2 7.4 79 1.7 SE 11 19 6 10 1012.1 1012.6 0.0
24/09:30am 10.4 7.2 6.9 79 1.7 ESE 13 20 7 11 1012.6 1013.1 0.0
24/09:00am 10.0 6.8 6.7 80 1.6 ESE 13 17 7 9 1012.6 1013.1 0.0
24/08:30am 9.3 6.5 7.1 86 1.1 SSE 11 15 6 8 1012.6 1013.1 0.0
24/08:00am 7.7 5.6 6.6 93 0.5 SSW 7 11 4 6 1012.5 1013.0 0.0
24/07:30am 7.0 4.0 6.1 94 0.4 SSW 11 17 6 9 1012.7 1013.2 0.0
24/07:00am 6.3 2.9 5.7 96 0.3 SW 13 15 7 8 1012.7 1013.2 0.0
24/06:30am 6.1 2.5 5.2 94 0.4 SSW 13 15 7 8 1012.6 1013.1 0.0
24/06:00am 5.8 2.6 4.9 94 0.4 SSW 11 13 6 7 1012.2 1012.7 0.0
24/05:30am 5.9 2.3 5.0 94 0.4 SSW 13 15 7 8 1012.2 1012.7 0.0
24/05:00am 5.7 2.9 5.3 97 0.2 SW 9 11 5 6 1012.4 1012.9 0.0
24/04:30am 5.4 2.1 4.5 94 0.4 WSW 11 13 6 7 1012.5 1013.0 0.0
24/04:00am 5.6 2.6 4.2 91 0.6 S 9 11 5 6 1012.0 1012.5 0.0
24/03:30am 7.5 5.1 5.3 86 1.0 SSE 7 11 4 6 1012.3 1012.8 0.0
24/03:00am 8.3 6.1 6.1 86 1.0 SSE 7 11 4 6 1012.9 1013.4 0.0
24/02:30am 8.0 6.1 6.5 90 0.7 S 6 7 3 4 1013.1 1013.6 0.0
24/02:00am 8.5 6.0 6.6 88 0.9 ESE 9 15 5 8 1013.3 1013.8 0.0
24/01:30am 8.3 6.5 7.2 93 0.5 SE 6 9 3 5 1013.5 1014.1 0.0
24/01:00am 7.4 4.7 7.3 99 0.0 WSW 11 13 6 7 1013.9 1014.5 0.0
24/12:30am 6.8 4.7 6.7 99 0.0 SSW 7 9 4 5 1014.3 1014.9 0.0
24/12:00am 6.0 4.3 5.9 99 0.0 S 4 7 2 4 1014.7 1015.2 0.0
 
Date/Time
EST
Temp
°C
App
Temp
°C
Dew
Point
°C
Rel
Hum
%
Delta-T
°C
Wind Press
QNH
hPa
Press
MSL
hPa
Rain since
9am
mm
Dir  Spd
km/h
Gust
km/h
Spd
kts
Gust
kts
23/11:30pm 5.6 3.4 5.5 99 0.0 SW 6 7 3 4 1015.1 1015.6 0.0
23/11:00pm 4.9 2.6 4.8 99 0.0 SSW 6 9 3 5 1015.2 1015.7 0.0
23/10:30pm 4.0 1.5 3.9 99 0.0 SW 6 7 3 4 1015.2 1015.7 0.0
23/10:00pm 4.3 1.7 4.2 99 0.0 SW 7 7 4 4 1015.4 1015.9 0.0
23/09:30pm 4.4 1.8 4.3 99 0.0 S 7 9 4 5 1015.3 1015.8 0.0
23/09:00pm 5.2 2.8 5.1 99 0.0 S 7 9 4 5 1015.2 1015.7 0.0
23/08:30pm 5.8 4.8 5.7 99 0.0 CALM 0 9 0 5 1015.6 1016.2 0.0
23/08:00pm 6.1 4.0 5.8 98 0.1 S 6 9 3 5 1015.3 1015.8 0.0
23/07:30pm 6.7 4.7 6.3 97 0.2 S 6 9 3 5 1015.0 1015.5 0.0
23/07:00pm 6.9 4.7 6.0 94 0.4 S 7 7 4 4 1014.5 1015.1 0.0
23/06:30pm 8.5 7.8 7.1 91 0.7 CALM 0 0 0 0 1015.2 1015.7 0.0
23/06:00pm 9.3 7.5 7.3 87 1.0 WSW 6 9 3 5 1014.7 1015.2 0.0
23/05:30pm 10.5 9.8 7.0 79 1.7 CALM 0 0 0 0 1014.9 1015.4 0.0
23/05:00pm 11.2 9.2 6.9 75 2.1 S 7 9 4 5 1014.5 1015.1 0.0
23/04:30pm 11.6 10.7 5.9 68 2.7 CALM 0 0 0 0 1015.2 1015.7 0.0
23/04:00pm 11.6 9.3 5.5 66 2.9 SSW 7 9 4 5 1014.4 1015.0 0.0
23/03:30pm 11.9 10.3 6.2 68 2.7 SSW 4 9 2 5 1014.2 1014.8 0.0
23/03:00pm 11.7 9.6 5.8 67 2.8 SSW 6 9 3 5 1013.9 1014.5 0.0
23/02:30pm 11.6 10.7 6.1 69 2.6 CALM 0 6 0 3 1014.0 1014.6 0.0
23/02:00pm 11.6 10.2 5.7 67 2.8 SE 2 7 1 4 1013.7 1014.3 0.0
23/01:30pm 11.4 9.6 5.3 66 2.9 N 4 7 2 4 1014.4 1015.0 0.0
23/01:00pm 10.7 8.5 5.5 70 2.4 ENE 6 9 3 5 1014.5 1015.1 0.0
23/12:30pm 11.0 8.6 5.3 68 2.7 S 7 9 4 5 1015.3 1015.8 0.0
23/12:00pm 10.5 8.4 5.9 73 2.2 SW 6 11 3 6 1015.5 1016.0 0.0
23/11:30am 9.7 7.7 6.2 79 1.7 SW 6 11 3 6 1016.1 1016.7 0.0
23/11:00am 8.8 6.9 6.9 88 0.9 WSW 6 9 3 5 1016.3 1016.9 0.0
23/10:30am 8.1 6.1 6.1 87 0.9 WSW 6 9 3 5 1016.3 1016.9 0.0
23/10:00am 7.8 5.4 6.9 94 0.4 NW 9 11 5 6 1016.5 1017.1 0.0
23/09:30am 7.4 4.8 6.3 93 0.5 NNW 9 11 5 6 1016.6 1017.2 0.0
23/09:00am 7.2 4.6 6.3 94 0.4 NNE 9 11 5 6 1016.0 1016.6 4.2
23/08:30am 7.1 4.3 7.0 99 0.0 SSE 11 15 6 8 1014.8 1015.3 4.2
23/08:00am 6.6 2.6 6.5 99 0.0 S 17 20 9 11 1013.2 1013.7 4.2
23/07:30am 5.6 4.2 5.5 99 0.0 SSE 2 7 1 4 1014.1 1014.7 4.2
23/07:00am 4.2 2.9 4.1 99 0.0 CALM 0 0 0 0 1014.1 1014.7 4.2
23/06:30am 5.1 4.0 5.0 99 0.0 CALM 0 0 0 0 1013.9 1014.5 4.2
23/06:00am 5.8 4.1 5.7 99 0.0 N 4 6 2 3 1013.7 1014.3 4.2
23/05:30am 5.4 4.3 5.3 99 0.0 CALM 0 0 0 0 1013.6 1014.2 4.2
23/05:00am 5.8 4.4 5.7 99 0.0 ENE 2 6 1 3 1013.3 1013.8 4.2
23/04:30am 6.3 5.4 6.2 99 0.0 CALM 0 0 0 0 1013.1 1013.6 4.2
23/04:00am 6.6 4.7 6.5 99 0.0 SSW 6 9 3 5 1013.3 1013.8 4.2
23/03:30am 6.7 4.2 6.6 99 0.0 SW 9 11 5 6 1013.2 1013.7 4.2
23/03:00am 7.0 6.3 6.9 99 0.0 CALM 0 0 0 0 1013.4 1014.0 4.2
23/02:30am 6.8 4.9 6.7 99 0.0 WSW 6 7 3 4 1013.5 1014.1 4.2
23/02:00am 6.8 4.9 6.7 99 0.0 W 6 9 3 5 1013.8 1014.4 4.2
23/01:30am 6.8 4.9 6.7 99 0.0 WSW 6 7 3 4 1013.9 1014.5 4.0
23/01:00am 6.9 5.0 6.8 99 0.0 SSW 6 7 3 4 1013.9 1014.5 3.8
23/12:30am 6.9 4.8 6.8 99 0.0 SW 7 11 4 6 1013.8 1014.4 3.2
23/12:00am 7.0 6.3 6.9 99 0.0 CALM 0 0 0 0 1013.7 1014.3 2.6
 
Date/Time
EST
Temp
°C
App
Temp
°C
Dew
Point
°C
Rel
Hum
%
Delta-T
°C
Wind Press
QNH
hPa
Press
MSL
hPa
Rain since
9am
mm
Dir  Spd
km/h
Gust
km/h
Spd
kts
Gust
kts
22/11:30pm 7.0 5.1 6.9 99 0.0 SW 6 7 3 4 1013.4 1014.0 1.6
22/11:00pm 7.1 4.7 6.8 98 0.1 SW 9 13 5 7 1013.3 1013.8 1.2
22/10:30pm 7.3 4.5 6.9 97 0.2 SSW 11 15 6 8 1013.2 1013.7 0.8
22/10:00pm 7.5 4.8 7.2 98 0.1 SSW 11 15 6 8 1013.3 1013.8 0.8
22/09:30pm 7.5 6.1 7.4 99 0.0 S 4 7 2 4 1013.3 1013.8 0.8
22/09:00pm 7.5 6.8 6.9 96 0.3 CALM 0 6 0 3 1013.4 1014.0 0.6
22/08:30pm 7.5 6.0 6.9 96 0.3 SSE 4 7 2 4 1013.4 1014.0 0.6
22/08:00pm 7.8 6.4 7.1 95 0.3 WSW 4 7 2 4 1013.6 1014.2 0.6
22/07:30pm 8.0 7.3 6.9 93 0.5 CALM 0 0 0 0 1013.5 1014.1 0.2
22/07:00pm 8.2 7.5 6.8 91 0.7 CALM 0 0 0 0 1013.2 1013.7 0.2
22/06:30pm 8.4 7.6 6.7 89 0.8 CALM 0 0 0 0 1012.9 1013.4 0.2
22/06:00pm 8.7 6.6 6.7 87 0.9 N 7 11 4 6 1012.8 1013.3 0.2
22/05:30pm 9.0 7.2 7.1 88 0.9 NNE 6 9 3 5 1012.6 1013.1 0.0
22/05:00pm 9.4 6.9 6.5 82 1.4 N 9 15 5 8 1012.8 1013.3 0.0
22/04:30pm 10.2 6.8 6.0 75 2.0 NNW 13 17 7 9 1012.9 1013.4 0.0
22/04:00pm 10.6 6.7 5.4 70 2.4 NNW 15 20 8 11 1012.4 1012.9 0.0
22/03:30pm 11.1 6.9 5.6 69 2.6 N 17 22 9 12 1011.8 1012.4 0.0
22/03:00pm 11.6 8.0 5.0 64 3.1 N 13 19 7 10 1012.1 1012.6 0.0
22/02:30pm 11.9 7.5 4.9 62 3.3 N 17 24 9 13 1012.2 1012.7 0.0
22/02:00pm 13.4 9.1 7.2 66 3.1 NNE 19 24 10 13 1012.5 1013.0 0.0
22/01:30pm 12.7 8.9 5.6 62 3.4 NE 15 20 8 11 1012.8 1013.3 0.0
22/01:00pm 12.2 8.2 5.1 62 3.3 NNE 15 20 8 11 1013.4 1014.0 0.0
22/12:30pm 12.4 8.9 5.6 63 3.2 NE 13 19 7 10 1013.9 1014.5 0.0
22/12:00pm 12.3 8.3 4.8 60 3.5 ENE 15 19 8 10 1014.5 1015.1 0.0
22/11:30am 12.9 9.9 6.0 63 3.3 NE 11 15 6 8 1015.3 1015.8 0.0
22/11:00am 12.2 9.1 5.4 63 3.2 NE 11 15 6 8 1015.5 1016.0 0.0
22/10:30am 11.2 7.8 5.9 70 2.5 ENE 13 17 7 9 1015.6 1016.2 0.0
22/10:00am 10.9 9.0 7.6 80 1.6 ESE 7 11 4 6 1015.6 1016.2 0.0
22/09:30am 9.3 7.0 7.4 88 0.9 N 9 15 5 8 1016.1 1016.7 0.0
22/09:00am 7.8 7.1 7.1 95 0.3 CALM 0 0 0 0 1015.8 1016.4 0.2
22/08:30am 7.3 6.7 7.2 99 0.0 CALM 0 0 0 0 1016.0 1016.6 0.2
22/08:00am 6.5 4.5 6.4 99 0.0 SSE 6 9 3 5 1015.8 1016.4 0.2
22/07:30am 5.6 3.3 5.5 99 0.0 SSW 7 9 4 5 1015.8 1016.4 0.2
22/07:00am 5.2 3.0 5.1 99 0.0 SSW 6 9 3 5 1016.2 1016.8 0.2
22/06:30am 5.0 3.9 4.9 99 0.0 CALM 0 0 0 0 1016.1 1016.7 0.2
22/06:00am 5.1 4.0 5.0 99 0.0 CALM 0 0 0 0 1016.2 1016.8 0.2
22/05:30am 5.2 4.1 5.1 99 0.0 CALM 0 0 0 0 1016.1 1016.7 0.2
22/05:00am 5.1 4.0 5.0 99 0.0 CALM 0 0 0 0 1016.0 1016.6 0.2
22/04:30am 5.0 3.9 4.9 99 0.0 CALM 0 0 0 0 1016.0 1016.6 0.2
22/04:00am 5.0 3.9 4.9 99 0.0 CALM 0 0 0 0 1016.1 1016.7 0.2
22/03:30am 4.8 3.6 4.7 99 0.0 CALM 0 0 0 0 1016.0 1016.6 0.2
22/03:00am 4.5 1.9 4.4 99 0.0 S 7 9 4 5 1016.1 1016.7 0.0
22/02:30am 4.2 2.1 4.1 99 0.0 SSW 4 7 2 4 1016.8 1017.4 0.0
22/02:00am 3.9 2.5 3.8 99 0.0 CALM 0 0 0 0 1017.2 1017.8 0.0
22/01:30am 3.9 1.2 3.8 99 0.0 S 7 7 4 4 1017.1 1017.7 0.0
22/01:00am 3.8 1.1 3.7 99 0.0 SSW 7 7 4 4 1017.2 1017.8 0.0
22/12:30am 3.6 0.9 3.5 99 0.0 SSW 7 9 4 5 1017.1 1017.7 0.0
22/12:00am 3.3 1.8 3.2 99 0.0 CALM 0 0 0 0 1017.2 1017.8 0.0
 
Date/Time
EST
Temp
°C
App
Temp
°C
Dew
Point
°C
Rel
Hum
%
Delta-T
°C
Wind Press
QNH
hPa
Press
MSL
hPa
Rain since
9am
mm
Dir  Spd
km/h
Gust
km/h
Spd
kts
Gust
kts
21/11:30pm 3.2 1.7 3.1 99 0.0 CALM 0 0 0 0 1017.6 1018.1 0.0
21/11:00pm 3.2 0.4 3.1 99 0.0 SSW 7 9 4 5 1017.6 1018.1 0.0
21/10:30pm 2.9 0.2 2.8 99 0.0 SW 6 7 3 4 1018.0 1018.6 0.0
21/10:00pm 3.1 0.5 3.0 99 0.0 S 6 7 3 4 1018.2 1018.8 0.0
21/09:30pm 3.0 0.3 2.9 99 0.0 SSW 6 7 3 4 1018.2 1018.8 0.0
21/09:00pm 3.4 1.2 3.3 99 0.0 SSW 4 6 2 3 1018.1 1018.7 0.0
21/08:30pm 3.8 1.1 3.5 98 0.1 SW 7 7 4 4 1018.1 1018.7 0.0

Other Formats:

Comma delimited format used in spreadsheet applications
http://www.bom.gov.au/fwo/IDN60801/IDN60801.94712.axf

JavaScript Object Notation format (JSON) in row-major order
http://www.bom.gov.au/fwo/IDN60801/IDN60801.94712.json